sensor_id;sensor_type;location;lat;lon;timestamp;temperature;humidity
14014;DHT22;49110;52.584;13.408;2023-03-23T00:00:56;14.10;94.50
14014;DHT22;49110;52.584;13.408;2023-03-23T00:01:56;14.10;94.60
14014;DHT22;49110;52.584;13.408;2023-03-23T00:02:57;14.10;94.60
14014;DHT22;49110;52.584;13.408;2023-03-23T00:03:58;14.10;94.60
14014;DHT22;49110;52.584;13.408;2023-03-23T00:04:58;14.00;94.50
14014;DHT22;49110;52.584;13.408;2023-03-23T00:06:01;14.00;94.60
14014;DHT22;49110;52.584;13.408;2023-03-23T00:07:07;14.00;94.60
14014;DHT22;49110;52.584;13.408;2023-03-23T00:08:08;14.00;94.60
14014;DHT22;49110;52.584;13.408;2023-03-23T00:09:19;14.00;94.70
14014;DHT22;49110;52.584;13.408;2023-03-23T00:10:24;14.00;94.80
14014;DHT22;49110;52.584;13.408;2023-03-23T00:11:28;14.00;94.70
14014;DHT22;49110;52.584;13.408;2023-03-23T00:12:31;14.00;94.80
14014;DHT22;49110;52.584;13.408;2023-03-23T00:13:35;14.00;94.70
14014;DHT22;49110;52.584;13.408;2023-03-23T00:14:35;14.00;94.70
14014;DHT22;49110;52.584;13.408;2023-03-23T00:15:41;13.90;94.60
14014;DHT22;49110;52.584;13.408;2023-03-23T00:16:42;14.00;94.70
14014;DHT22;49110;52.584;13.408;2023-03-23T00:17:42;13.90;94.70
14014;DHT22;49110;52.584;13.408;2023-03-23T00:18:47;13.90;94.70
14014;DHT22;49110;52.584;13.408;2023-03-23T00:19:48;14.00;94.70
14014;DHT22;49110;52.584;13.408;2023-03-23T00:20:56;13.90;94.70
14014;DHT22;49110;52.584;13.408;2023-03-23T00:21:56;13.90;94.70
14014;DHT22;49110;52.584;13.408;2023-03-23T00:23:00;13.90;94.80
14014;DHT22;49110;52.584;13.408;2023-03-23T00:24:07;14.00;94.80
14014;DHT22;49110;52.584;13.408;2023-03-23T00:25:08;14.00;94.70
14014;DHT22;49110;52.584;13.408;2023-03-23T00:26:09;13.90;94.60
14014;DHT22;49110;52.584;13.408;2023-03-23T00:27:09;13.90;94.70
14014;DHT22;49110;52.584;13.408;2023-03-23T00:28:12;13.90;94.80
14014;DHT22;49110;52.584;13.408;2023-03-23T00:29:15;13.90;94.70
14014;DHT22;49110;52.584;13.408;2023-03-23T00:30:16;13.90;94.80
14014;DHT22;49110;52.584;13.408;2023-03-23T00:31:17;13.90;94.80
14014;DHT22;49110;52.584;13.408;2023-03-23T00:32:21;13.90;94.80
14014;DHT22;49110;52.584;13.408;2023-03-23T00:33:30;14.00;94.80
14014;DHT22;49110;52.584;13.408;2023-03-23T00:34:30;14.00;94.80
14014;DHT22;49110;52.584;13.408;2023-03-23T00:35:34;14.00;94.80
14014;DHT22;49110;52.584;13.408;2023-03-23T00:36:36;14.00;94.80
14014;DHT22;49110;52.584;13.408;2023-03-23T00:37:43;14.00;94.70
14014;DHT22;49110;52.584;13.408;2023-03-23T00:38:44;14.00;94.70
14014;DHT22;49110;52.584;13.408;2023-03-23T00:39:47;14.00;94.70
14014;DHT22;49110;52.584;13.408;2023-03-23T00:40:48;14.00;94.80
14014;DHT22;49110;52.584;13.408;2023-03-23T00:41:48;14.00;94.80
14014;DHT22;49110;52.584;13.408;2023-03-23T00:42:49;13.90;95.20
14014;DHT22;49110;52.584;13.408;2023-03-23T00:43:50;13.90;94.90
14014;DHT22;49110;52.584;13.408;2023-03-23T00:44:51;13.90;95.00
14014;DHT22;49110;52.584;13.408;2023-03-23T00:46:00;13.80;95.00
14014;DHT22;49110;52.584;13.408;2023-03-23T00:47:02;13.80;95.10
14014;DHT22;49110;52.584;13.408;2023-03-23T00:48:03;13.70;95.20
14014;DHT22;49110;52.584;13.408;2023-03-23T00:49:04;13.80;95.20
14014;DHT22;49110;52.584;13.408;2023-03-23T00:50:05;13.70;95.30
14014;DHT22;49110;52.584;13.408;2023-03-23T00:51:07;13.60;95.40
14014;DHT22;49110;52.584;13.408;2023-03-23T00:52:10;13.70;95.50
14014;DHT22;49110;52.584;13.408;2023-03-23T00:53:11;13.70;95.50
14014;DHT22;49110;52.584;13.408;2023-03-23T00:54:12;13.60;95.50
14014;DHT22;49110;52.584;13.408;2023-03-23T00:55:12;13.60;95.50
14014;DHT22;49110;52.584;13.408;2023-03-23T00:56:13;13.60;95.60
14014;DHT22;49110;52.584;13.408;2023-03-23T00:57:14;13.60;95.60
14014;DHT22;49110;52.584;13.408;2023-03-23T00:58:16;13.60;95.70
14014;DHT22;49110;52.584;13.408;2023-03-23T00:59:17;13.60;95.70
14014;DHT22;49110;52.584;13.408;2023-03-23T01:00:18;13.60;95.60
14014;DHT22;49110;52.584;13.408;2023-03-23T01:01:19;13.60;95.60
14014;DHT22;49110;52.584;13.408;2023-03-23T01:02:20;13.60;95.60
14014;DHT22;49110;52.584;13.408;2023-03-23T01:03:24;13.60;95.60
14014;DHT22;49110;52.584;13.408;2023-03-23T01:04:26;13.60;95.70
14014;DHT22;49110;52.584;13.408;2023-03-23T01:05:28;13.60;95.70
14014;DHT22;49110;52.584;13.408;2023-03-23T01:06:34;13.60;95.70
14014;DHT22;49110;52.584;13.408;2023-03-23T01:07:41;13.60;95.70
14014;DHT22;49110;52.584;13.408;2023-03-23T01:08:42;13.60;95.80
14014;DHT22;49110;52.584;13.408;2023-03-23T01:09:45;13.60;95.80
14014;DHT22;49110;52.584;13.408;2023-03-23T01:10:46;13.60;95.80
14014;DHT22;49110;52.584;13.408;2023-03-23T01:11:49;13.50;95.90
14014;DHT22;49110;52.584;13.408;2023-03-23T01:12:50;13.50;95.80
14014;DHT22;49110;52.584;13.408;2023-03-23T01:13:51;13.50;95.80
14014;DHT22;49110;52.584;13.408;2023-03-23T01:14:52;13.50;95.90
14014;DHT22;49110;52.584;13.408;2023-03-23T01:15:52;13.50;95.90
14014;DHT22;49110;52.584;13.408;2023-03-23T01:16:53;13.40;95.80
14014;DHT22;49110;52.584;13.408;2023-03-23T01:17:53;13.40;95.80
14014;DHT22;49110;52.584;13.408;2023-03-23T01:18:54;13.40;95.80
14014;DHT22;49110;52.584;13.408;2023-03-23T01:19:55;13.40;95.90
14014;DHT22;49110;52.584;13.408;2023-03-23T01:20:56;13.40;96.00
14014;DHT22;49110;52.584;13.408;2023-03-23T01:21:57;13.40;96.10
14014;DHT22;49110;52.584;13.408;2023-03-23T01:23:00;13.40;96.00
14014;DHT22;49110;52.584;13.408;2023-03-23T01:24:00;13.50;96.00
14014;DHT22;49110;52.584;13.408;2023-03-23T01:25:01;13.50;95.90
14014;DHT22;49110;52.584;13.408;2023-03-23T01:26:05;13.50;95.80
14014;DHT22;49110;52.584;13.408;2023-03-23T01:27:07;13.50;95.70
14014;DHT22;49110;52.584;13.408;2023-03-23T01:28:07;13.50;95.70
14014;DHT22;49110;52.584;13.408;2023-03-23T01:29:08;13.50;95.90
14014;DHT22;49110;52.584;13.408;2023-03-23T01:30:11;13.40;95.80
14014;DHT22;49110;52.584;13.408;2023-03-23T01:31:15;13.40;95.90
14014;DHT22;49110;52.584;13.408;2023-03-23T01:32:16;13.40;95.90
14014;DHT22;49110;52.584;13.408;2023-03-23T01:33:16;13.40;95.80
14014;DHT22;49110;52.584;13.408;2023-03-23T01:34:17;13.40;95.90
14014;DHT22;49110;52.584;13.408;2023-03-23T01:35:18;13.40;96.00
14014;DHT22;49110;52.584;13.408;2023-03-23T01:36:21;13.40;95.90
14014;DHT22;49110;52.584;13.408;2023-03-23T01:37:22;13.40;96.00
14014;DHT22;49110;52.584;13.408;2023-03-23T01:38:26;13.40;96.00
14014;DHT22;49110;52.584;13.408;2023-03-23T01:39:27;13.40;96.00
14014;DHT22;49110;52.584;13.408;2023-03-23T01:40:27;13.40;96.00
14014;DHT22;49110;52.584;13.408;2023-03-23T01:41:28;13.40;95.90
14014;DHT22;49110;52.584;13.408;2023-03-23T01:42:34;13.50;95.90
14014;DHT22;49110;52.584;13.408;2023-03-23T01:43:35;13.50;95.90
14014;DHT22;49110;52.584;13.408;2023-03-23T01:45:36;13.50;95.90
14014;DHT22;49110;52.584;13.408;2023-03-23T01:46:37;13.50;95.90
14014;DHT22;49110;52.584;13.408;2023-03-23T01:47:37;13.60;95.90
14014;DHT22;49110;52.584;13.408;2023-03-23T01:48:38;13.60;95.80
14014;DHT22;49110;52.584;13.408;2023-03-23T01:49:43;13.60;95.60
14014;DHT22;49110;52.584;13.408;2023-03-23T01:51:55;13.60;95.70
14014;DHT22;49110;52.584;13.408;2023-03-23T01:52:58;13.50;95.80
14014;DHT22;49110;52.584;13.408;2023-03-23T01:54:02;13.60;95.80
14014;DHT22;49110;52.584;13.408;2023-03-23T01:55:05;13.60;95.80
14014;DHT22;49110;52.584;13.408;2023-03-23T01:56:07;13.60;95.80
14014;DHT22;49110;52.584;13.408;2023-03-23T01:57:15;13.60;95.80
14014;DHT22;49110;52.584;13.408;2023-03-23T01:58:24;13.50;95.90
14014;DHT22;49110;52.584;13.408;2023-03-23T01:59:27;13.60;95.90
14014;DHT22;49110;52.584;13.408;2023-03-23T02:00:29;13.70;95.80
14014;DHT22;49110;52.584;13.408;2023-03-23T02:01:30;13.70;95.70
14014;DHT22;49110;52.584;13.408;2023-03-23T02:02:31;13.70;95.60
14014;DHT22;49110;52.584;13.408;2023-03-23T02:03:36;13.80;95.50
14014;DHT22;49110;52.584;13.408;2023-03-23T02:04:39;13.80;95.40
14014;DHT22;49110;52.584;13.408;2023-03-23T02:05:41;13.80;95.40
14014;DHT22;49110;52.584;13.408;2023-03-23T02:06:42;13.80;95.40
14014;DHT22;49110;52.584;13.408;2023-03-23T02:07:45;13.80;95.40
14014;DHT22;49110;52.584;13.408;2023-03-23T02:08:48;13.80;95.40
14014;DHT22;49110;52.584;13.408;2023-03-23T02:09:50;13.80;95.40
14014;DHT22;49110;52.584;13.408;2023-03-23T02:10:51;13.70;95.40
14014;DHT22;49110;52.584;13.408;2023-03-23T02:11:53;13.80;95.50
14014;DHT22;49110;52.584;13.408;2023-03-23T02:12:54;13.80;95.50
14014;DHT22;49110;52.584;13.408;2023-03-23T02:13:55;13.80;95.50
14014;DHT22;49110;52.584;13.408;2023-03-23T02:14:56;13.80;95.40
14014;DHT22;49110;52.584;13.408;2023-03-23T02:17:44;13.90;95.20
14014;DHT22;49110;52.584;13.408;2023-03-23T02:20:23;13.90;95.10
14014;DHT22;49110;52.584;13.408;2023-03-23T02:24:26;13.90;95.00
14014;DHT22;49110;52.584;13.408;2023-03-23T02:25:44;13.90;95.00
14014;DHT22;49110;52.584;13.408;2023-03-23T02:32:25;13.80;95.10
14014;DHT22;49110;52.584;13.408;2023-03-23T02:35:12;13.80;95.20
14014;DHT22;49110;52.584;13.408;2023-03-23T02:36:40;13.70;95.30
14014;DHT22;49110;52.584;13.408;2023-03-23T02:37:52;13.70;95.30
14014;DHT22;49110;52.584;13.408;2023-03-23T02:39:09;13.80;95.30
14014;DHT22;49110;52.584;13.408;2023-03-23T02:40:36;13.80;95.20
14014;DHT22;49110;52.584;13.408;2023-03-23T02:41:45;13.80;95.10
14014;DHT22;49110;52.584;13.408;2023-03-23T02:42:50;13.80;95.10
14014;DHT22;49110;52.584;13.408;2023-03-23T02:43:52;13.90;95.20
14014;DHT22;49110;52.584;13.408;2023-03-23T02:44:54;13.90;95.10
14014;DHT22;49110;52.584;13.408;2023-03-23T02:45:56;13.90;94.90
14014;DHT22;49110;52.584;13.408;2023-03-23T02:46:59;13.90;94.90
14014;DHT22;49110;52.584;13.408;2023-03-23T02:48:02;13.90;94.80
14014;DHT22;49110;52.584;13.408;2023-03-23T02:49:06;14.00;94.90
14014;DHT22;49110;52.584;13.408;2023-03-23T02:50:10;14.00;94.90
14014;DHT22;49110;52.584;13.408;2023-03-23T02:51:12;14.00;95.00
14014;DHT22;49110;52.584;13.408;2023-03-23T02:52:17;14.10;95.10
14014;DHT22;49110;52.584;13.408;2023-03-23T02:53:22;14.10;95.40
14014;DHT22;49110;52.584;13.408;2023-03-23T02:54:24;14.10;95.40
14014;DHT22;49110;52.584;13.408;2023-03-23T02:55:27;14.10;95.40
14014;DHT22;49110;52.584;13.408;2023-03-23T02:56:29;14.10;95.50
14014;DHT22;49110;52.584;13.408;2023-03-23T02:57:30;14.10;95.50
14014;DHT22;49110;52.584;13.408;2023-03-23T02:58:31;14.10;95.60
14014;DHT22;49110;52.584;13.408;2023-03-23T02:59:31;14.10;95.70
14014;DHT22;49110;52.584;13.408;2023-03-23T03:00:32;14.10;95.80
14014;DHT22;49110;52.584;13.408;2023-03-23T03:02:39;14.00;96.10
14014;DHT22;49110;52.584;13.408;2023-03-23T03:03:42;14.00;96.10
14014;DHT22;49110;52.584;13.408;2023-03-23T03:06:27;13.90;96.20
14014;DHT22;49110;52.584;13.408;2023-03-23T03:07:53;14.00;96.30
14014;DHT22;49110;52.584;13.408;2023-03-23T03:09:13;14.00;96.30
14014;DHT22;49110;52.584;13.408;2023-03-23T03:10:23;14.00;96.10
14014;DHT22;49110;52.584;13.408;2023-03-23T03:11:26;13.90;96.30
14014;DHT22;49110;52.584;13.408;2023-03-23T03:12:31;13.90;96.30
14014;DHT22;49110;52.584;13.408;2023-03-23T03:13:53;13.90;96.20
14014;DHT22;49110;52.584;13.408;2023-03-23T03:15:18;14.00;96.30
14014;DHT22;49110;52.584;13.408;2023-03-23T03:16:34;14.00;96.20
14014;DHT22;49110;52.584;13.408;2023-03-23T03:17:41;14.10;96.20
14014;DHT22;49110;52.584;13.408;2023-03-23T03:19:18;14.10;96.20
14014;DHT22;49110;52.584;13.408;2023-03-23T03:20:21;14.10;96.20
14014;DHT22;49110;52.584;13.408;2023-03-23T03:21:25;14.00;96.10
14014;DHT22;49110;52.584;13.408;2023-03-23T03:22:28;14.00;96.10
14014;DHT22;49110;52.584;13.408;2023-03-23T03:23:31;13.90;96.10
14014;DHT22;49110;52.584;13.408;2023-03-23T03:24:33;14.10;96.20
14014;DHT22;49110;52.584;13.408;2023-03-23T03:25:34;14.00;96.10
14014;DHT22;49110;52.584;13.408;2023-03-23T03:26:35;14.10;96.10
14014;DHT22;49110;52.584;13.408;2023-03-23T03:27:35;14.10;96.10
14014;DHT22;49110;52.584;13.408;2023-03-23T03:28:36;14.10;96.10
14014;DHT22;49110;52.584;13.408;2023-03-23T03:29:40;14.10;96.10
14014;DHT22;49110;52.584;13.408;2023-03-23T03:30:45;14.10;96.20
14014;DHT22;49110;52.584;13.408;2023-03-23T03:31:47;14.10;96.20
14014;DHT22;49110;52.584;13.408;2023-03-23T03:32:51;14.10;96.20
14014;DHT22;49110;52.584;13.408;2023-03-23T03:33:53;14.20;96.20
14014;DHT22;49110;52.584;13.408;2023-03-23T03:34:54;14.20;96.00
14014;DHT22;49110;52.584;13.408;2023-03-23T03:35:55;14.20;95.80
14014;DHT22;49110;52.584;13.408;2023-03-23T03:36:58;14.10;95.90
14014;DHT22;49110;52.584;13.408;2023-03-23T03:38:06;14.20;96.20
14014;DHT22;49110;52.584;13.408;2023-03-23T03:39:09;14.20;96.30
14014;DHT22;49110;52.584;13.408;2023-03-23T03:40:13;14.20;95.90
14014;DHT22;49110;52.584;13.408;2023-03-23T03:41:14;14.20;96.00
14014;DHT22;49110;52.584;13.408;2023-03-23T03:42:15;14.10;95.90
14014;DHT22;49110;52.584;13.408;2023-03-23T03:43:16;14.20;96.20
14014;DHT22;49110;52.584;13.408;2023-03-23T03:44:16;14.20;96.20
14014;DHT22;49110;52.584;13.408;2023-03-23T03:45:19;14.10;96.40
14014;DHT22;49110;52.584;13.408;2023-03-23T03:46:19;14.20;96.60
14014;DHT22;49110;52.584;13.408;2023-03-23T03:47:20;14.10;96.70
14014;DHT22;49110;52.584;13.408;2023-03-23T03:48:20;14.10;96.70
14014;DHT22;49110;52.584;13.408;2023-03-23T03:49:21;14.10;96.70
14014;DHT22;49110;52.584;13.408;2023-03-23T03:50:22;14.10;96.80
14014;DHT22;49110;52.584;13.408;2023-03-23T03:51:25;14.10;96.90
14014;DHT22;49110;52.584;13.408;2023-03-23T03:52:25;14.10;97.00
14014;DHT22;49110;52.584;13.408;2023-03-23T03:53:27;14.10;97.00
14014;DHT22;49110;52.584;13.408;2023-03-23T03:54:28;14.10;97.40
14014;DHT22;49110;52.584;13.408;2023-03-23T03:55:29;14.10;97.30
14014;DHT22;49110;52.584;13.408;2023-03-23T03:56:29;14.10;97.20
14014;DHT22;49110;52.584;13.408;2023-03-23T03:57:32;14.10;97.30
14014;DHT22;49110;52.584;13.408;2023-03-23T03:58:32;14.10;97.30
14014;DHT22;49110;52.584;13.408;2023-03-23T03:59:36;14.10;97.30
14014;DHT22;49110;52.584;13.408;2023-03-23T04:00:36;14.10;97.40
14014;DHT22;49110;52.584;13.408;2023-03-23T04:01:37;14.00;97.20
14014;DHT22;49110;52.584;13.408;2023-03-23T04:02:38;14.10;97.30
14014;DHT22;49110;52.584;13.408;2023-03-23T04:03:38;14.10;97.40
14014;DHT22;49110;52.584;13.408;2023-03-23T04:04:39;14.10;97.40
14014;DHT22;49110;52.584;13.408;2023-03-23T04:05:42;14.10;97.40
14014;DHT22;49110;52.584;13.408;2023-03-23T04:06:44;14.10;97.60
14014;DHT22;49110;52.584;13.408;2023-03-23T04:07:45;14.10;97.60
14014;DHT22;49110;52.584;13.408;2023-03-23T04:08:49;14.10;97.50
14014;DHT22;49110;52.584;13.408;2023-03-23T04:09:49;14.20;97.50
14014;DHT22;49110;52.584;13.408;2023-03-23T04:10:50;14.10;97.40
14014;DHT22;49110;52.584;13.408;2023-03-23T04:11:51;14.10;97.40
14014;DHT22;49110;52.584;13.408;2023-03-23T04:12:52;14.10;97.40
14014;DHT22;49110;52.584;13.408;2023-03-23T04:13:52;14.10;97.70
14014;DHT22;49110;52.584;13.408;2023-03-23T04:14:53;14.10;98.00
14014;DHT22;49110;52.584;13.408;2023-03-23T04:15:53;14.10;98.20
14014;DHT22;49110;52.584;13.408;2023-03-23T04:16:54;13.90;98.40
14014;DHT22;49110;52.584;13.408;2023-03-23T04:17:57;13.70;98.70
14014;DHT22;49110;52.584;13.408;2023-03-23T04:18:57;13.70;99.40
14014;DHT22;49110;52.584;13.408;2023-03-23T04:19:58;13.60;99.60
14014;DHT22;49110;52.584;13.408;2023-03-23T04:21:01;13.70;99.90
14014;DHT22;49110;52.584;13.408;2023-03-23T04:22:03;13.70;99.90
14014;DHT22;49110;52.584;13.408;2023-03-23T04:23:04;13.70;99.80
14014;DHT22;49110;52.584;13.408;2023-03-23T04:24:05;13.80;99.70
14014;DHT22;49110;52.584;13.408;2023-03-23T04:25:06;13.80;99.90
14014;DHT22;49110;52.584;13.408;2023-03-23T04:26:07;13.80;99.90
14014;DHT22;49110;52.584;13.408;2023-03-23T04:27:08;13.80;99.90
14014;DHT22;49110;52.584;13.408;2023-03-23T04:28:08;13.90;99.90
14014;DHT22;49110;52.584;13.408;2023-03-23T04:29:10;13.90;99.90
14014;DHT22;49110;52.584;13.408;2023-03-23T04:30:13;13.90;99.90
14014;DHT22;49110;52.584;13.408;2023-03-23T04:31:14;13.80;99.90
14014;DHT22;49110;52.584;13.408;2023-03-23T04:32:15;13.70;99.90
14014;DHT22;49110;52.584;13.408;2023-03-23T04:33:21;13.60;99.90
14014;DHT22;49110;52.584;13.408;2023-03-23T04:34:22;13.50;99.90
14014;DHT22;49110;52.584;13.408;2023-03-23T04:35:24;13.40;99.90
14014;DHT22;49110;52.584;13.408;2023-03-23T04:36:28;13.40;99.90
14014;DHT22;49110;52.584;13.408;2023-03-23T04:37:34;13.50;99.90
14014;DHT22;49110;52.584;13.408;2023-03-23T04:38:34;13.60;99.90
14014;DHT22;49110;52.584;13.408;2023-03-23T04:39:35;13.60;99.90
14014;DHT22;49110;52.584;13.408;2023-03-23T04:40:37;13.50;99.90
14014;DHT22;49110;52.584;13.408;2023-03-23T04:41:37;13.50;99.90
14014;DHT22;49110;52.584;13.408;2023-03-23T04:42:39;13.40;99.90
14014;DHT22;49110;52.584;13.408;2023-03-23T04:43:39;13.40;99.90
14014;DHT22;49110;52.584;13.408;2023-03-23T04:44:42;13.40;99.90
14014;DHT22;49110;52.584;13.408;2023-03-23T04:45:43;13.40;99.90
14014;DHT22;49110;52.584;13.408;2023-03-23T04:46:46;13.40;99.90
14014;DHT22;49110;52.584;13.408;2023-03-23T04:47:50;13.50;99.90
14014;DHT22;49110;52.584;13.408;2023-03-23T04:48:58;13.50;99.90
14014;DHT22;49110;52.584;13.408;2023-03-23T04:49:59;13.60;99.90
14014;DHT22;49110;52.584;13.408;2023-03-23T04:51:01;13.70;99.90
14014;DHT22;49110;52.584;13.408;2023-03-23T04:52:03;13.70;99.90
14014;DHT22;49110;52.584;13.408;2023-03-23T04:53:04;13.70;99.90
14014;DHT22;49110;52.584;13.408;2023-03-23T04:54:05;13.80;99.90
14014;DHT22;49110;52.584;13.408;2023-03-23T04:55:07;13.80;99.90
14014;DHT22;49110;52.584;13.408;2023-03-23T04:56:08;13.80;99.90
14014;DHT22;49110;52.584;13.408;2023-03-23T04:57:08;13.80;99.90
14014;DHT22;49110;52.584;13.408;2023-03-23T04:58:09;13.80;99.90
14014;DHT22;49110;52.584;13.408;2023-03-23T04:59:10;13.80;99.90
14014;DHT22;49110;52.584;13.408;2023-03-23T05:00:12;13.80;99.90
14014;DHT22;49110;52.584;13.408;2023-03-23T05:01:14;13.80;99.90
14014;DHT22;49110;52.584;13.408;2023-03-23T05:02:15;13.80;99.90
14014;DHT22;49110;52.584;13.408;2023-03-23T05:03:18;13.80;99.90
14014;DHT22;49110;52.584;13.408;2023-03-23T05:04:18;13.80;99.90
14014;DHT22;49110;52.584;13.408;2023-03-23T05:05:20;13.80;99.90
14014;DHT22;49110;52.584;13.408;2023-03-23T05:06:21;13.90;99.90
14014;DHT22;49110;52.584;13.408;2023-03-23T05:07:21;13.90;99.90
14014;DHT22;49110;52.584;13.408;2023-03-23T05:08:23;13.90;99.90
14014;DHT22;49110;52.584;13.408;2023-03-23T05:09:26;13.90;99.90
14014;DHT22;49110;52.584;13.408;2023-03-23T05:10:27;13.80;99.90
14014;DHT22;49110;52.584;13.408;2023-03-23T05:11:27;13.80;99.90
14014;DHT22;49110;52.584;13.408;2023-03-23T05:12:28;13.80;99.90
14014;DHT22;49110;52.584;13.408;2023-03-23T05:13:28;13.80;99.90
14014;DHT22;49110;52.584;13.408;2023-03-23T05:14:29;13.70;99.90
14014;DHT22;49110;52.584;13.408;2023-03-23T05:15:29;13.80;99.90
14014;DHT22;49110;52.584;13.408;2023-03-23T05:16:30;13.80;99.90
14014;DHT22;49110;52.584;13.408;2023-03-23T05:17:30;13.80;99.90
14014;DHT22;49110;52.584;13.408;2023-03-23T05:18:32;13.80;99.90
14014;DHT22;49110;52.584;13.408;2023-03-23T05:19:33;13.80;99.90
14014;DHT22;49110;52.584;13.408;2023-03-23T05:20:33;13.80;99.90
14014;DHT22;49110;52.584;13.408;2023-03-23T05:21:34;13.70;99.90
14014;DHT22;49110;52.584;13.408;2023-03-23T05:22:34;13.80;99.90
14014;DHT22;49110;52.584;13.408;2023-03-23T05:23:36;13.80;99.90
14014;DHT22;49110;52.584;13.408;2023-03-23T05:24:37;13.80;99.90
14014;DHT22;49110;52.584;13.408;2023-03-23T05:25:37;13.80;99.90
14014;DHT22;49110;52.584;13.408;2023-03-23T05:26:40;13.80;99.90
14014;DHT22;49110;52.584;13.408;2023-03-23T05:27:40;13.80;99.90
14014;DHT22;49110;52.584;13.408;2023-03-23T05:28:48;13.80;99.90
14014;DHT22;49110;52.584;13.408;2023-03-23T05:29:52;13.70;99.90
14014;DHT22;49110;52.584;13.408;2023-03-23T05:30:53;13.80;99.90
14014;DHT22;49110;52.584;13.408;2023-03-23T05:31:53;13.80;99.90
14014;DHT22;49110;52.584;13.408;2023-03-23T05:32:56;13.70;99.90
14014;DHT22;49110;52.584;13.408;2023-03-23T05:33:56;13.80;99.90
14014;DHT22;49110;52.584;13.408;2023-03-23T05:34:58;13.80;99.90
14014;DHT22;49110;52.584;13.408;2023-03-23T05:35:59;13.80;99.90
14014;DHT22;49110;52.584;13.408;2023-03-23T05:37:04;13.70;99.90
14014;DHT22;49110;52.584;13.408;2023-03-23T05:38:04;13.80;99.90
14014;DHT22;49110;52.584;13.408;2023-03-23T05:39:05;13.70;99.90
14014;DHT22;49110;52.584;13.408;2023-03-23T05:40:06;13.80;99.90
14014;DHT22;49110;52.584;13.408;2023-03-23T05:41:07;13.80;99.90
14014;DHT22;49110;52.584;13.408;2023-03-23T05:42:07;13.80;99.90
14014;DHT22;49110;52.584;13.408;2023-03-23T05:43:09;13.80;99.90
14014;DHT22;49110;52.584;13.408;2023-03-23T05:44:10;13.80;99.90
14014;DHT22;49110;52.584;13.408;2023-03-23T05:45:10;13.80;99.90
14014;DHT22;49110;52.584;13.408;2023-03-23T05:46:12;13.80;99.90
14014;DHT22;49110;52.584;13.408;2023-03-23T05:47:13;13.80;99.90
14014;DHT22;49110;52.584;13.408;2023-03-23T05:48:13;13.80;99.90
14014;DHT22;49110;52.584;13.408;2023-03-23T05:49:15;13.80;99.90
14014;DHT22;49110;52.584;13.408;2023-03-23T05:50:16;13.80;99.90
14014;DHT22;49110;52.584;13.408;2023-03-23T05:51:17;13.70;99.90
14014;DHT22;49110;52.584;13.408;2023-03-23T05:52:19;13.80;99.90
14014;DHT22;49110;52.584;13.408;2023-03-23T05:53:20;13.80;99.90
14014;DHT22;49110;52.584;13.408;2023-03-23T05:54:21;13.80;99.90
14014;DHT22;49110;52.584;13.408;2023-03-23T05:55:21;13.80;99.90
14014;DHT22;49110;52.584;13.408;2023-03-23T05:56:22;13.70;99.90
14014;DHT22;49110;52.584;13.408;2023-03-23T05:57:22;13.70;99.90
14014;DHT22;49110;52.584;13.408;2023-03-23T05:58:23;13.70;99.90
14014;DHT22;49110;52.584;13.408;2023-03-23T05:59:23;13.60;99.90
14014;DHT22;49110;52.584;13.408;2023-03-23T06:00:24;13.60;99.90
14014;DHT22;49110;52.584;13.408;2023-03-23T06:01:25;13.60;99.90
14014;DHT22;49110;52.584;13.408;2023-03-23T06:02:26;13.70;99.90
14014;DHT22;49110;52.584;13.408;2023-03-23T06:03:29;13.60;99.90
14014;DHT22;49110;52.584;13.408;2023-03-23T06:04:30;13.60;99.90
14014;DHT22;49110;52.584;13.408;2023-03-23T06:05:33;13.60;99.90
14014;DHT22;49110;52.584;13.408;2023-03-23T06:06:34;13.60;99.90
14014;DHT22;49110;52.584;13.408;2023-03-23T06:07:34;13.60;99.90
14014;DHT22;49110;52.584;13.408;2023-03-23T06:08:35;13.60;99.90
14014;DHT22;49110;52.584;13.408;2023-03-23T06:09:37;13.50;99.90
14014;DHT22;49110;52.584;13.408;2023-03-23T06:10:37;13.50;99.90
14014;DHT22;49110;52.584;13.408;2023-03-23T06:11:38;13.50;99.90
14014;DHT22;49110;52.584;13.408;2023-03-23T06:12:40;13.50;99.90
14014;DHT22;49110;52.584;13.408;2023-03-23T06:13:40;13.50;99.90
14014;DHT22;49110;52.584;13.408;2023-03-23T06:14:41;13.50;99.90
14014;DHT22;49110;52.584;13.408;2023-03-23T06:15:42;13.50;99.90
14014;DHT22;49110;52.584;13.408;2023-03-23T06:16:43;13.60;99.90
14014;DHT22;49110;52.584;13.408;2023-03-23T06:17:44;13.60;99.90
14014;DHT22;49110;52.584;13.408;2023-03-23T06:18:44;13.50;99.90
14014;DHT22;49110;52.584;13.408;2023-03-23T06:19:45;13.50;99.90
14014;DHT22;49110;52.584;13.408;2023-03-23T06:20:47;13.50;99.90
14014;DHT22;49110;52.584;13.408;2023-03-23T06:21:47;13.50;99.90
14014;DHT22;49110;52.584;13.408;2023-03-23T06:22:48;13.40;99.90
14014;DHT22;49110;52.584;13.408;2023-03-23T06:23:49;13.40;99.90
14014;DHT22;49110;52.584;13.408;2023-03-23T06:24:49;13.50;99.90
14014;DHT22;49110;52.584;13.408;2023-03-23T06:25:54;13.50;99.90
14014;DHT22;49110;52.584;13.408;2023-03-23T06:26:54;13.50;99.90
14014;DHT22;49110;52.584;13.408;2023-03-23T06:27:55;13.50;99.90
14014;DHT22;49110;52.584;13.408;2023-03-23T06:28:55;13.50;99.90
14014;DHT22;49110;52.584;13.408;2023-03-23T06:29:56;13.50;99.90
14014;DHT22;49110;52.584;13.408;2023-03-23T06:31:02;13.50;99.90
14014;DHT22;49110;52.584;13.408;2023-03-23T06:32:06;13.50;99.90
14014;DHT22;49110;52.584;13.408;2023-03-23T06:33:07;13.50;99.90
14014;DHT22;49110;52.584;13.408;2023-03-23T06:34:09;13.50;99.90
14014;DHT22;49110;52.584;13.408;2023-03-23T06:35:10;13.40;99.90
14014;DHT22;49110;52.584;13.408;2023-03-23T06:36:11;13.50;99.90
14014;DHT22;49110;52.584;13.408;2023-03-23T06:37:12;13.50;99.90
14014;DHT22;49110;52.584;13.408;2023-03-23T06:38:12;13.50;99.90
14014;DHT22;49110;52.584;13.408;2023-03-23T06:39:13;13.50;99.90
14014;DHT22;49110;52.584;13.408;2023-03-23T06:40:14;13.50;99.90
14014;DHT22;49110;52.584;13.408;2023-03-23T06:41:14;13.50;99.90
14014;DHT22;49110;52.584;13.408;2023-03-23T06:42:15;13.50;99.90
14014;DHT22;49110;52.584;13.408;2023-03-23T06:43:15;13.50;99.90
14014;DHT22;49110;52.584;13.408;2023-03-23T06:44:16;13.50;99.90
14014;DHT22;49110;52.584;13.408;2023-03-23T06:45:16;13.60;99.90
14014;DHT22;49110;52.584;13.408;2023-03-23T06:46:17;13.60;99.90
14014;DHT22;49110;52.584;13.408;2023-03-23T06:47:17;13.50;99.90